Terminal Aerodrome Forecast
Issued by NWS

Home | Current Version | Previous Version | Text Only | Print | Product List | Glossary On
Versions: 1 2 3 4 5 6 7 8 9 10 11 12 13 14 15 16
000
FTUS46 KLOX 292345
TAFVNY
TAF
KVNY 292345Z 3000/3024 15008KT P6SM SKC
     FM300200 12005KT P6SM SCT200
     FM300600 VRB03KT P6SM BKN200
     FM301000 VRB03KT P6SM VCTS BKN120CB
     FM302100 15007KT P6SM SCT080 BKN120=

USA.gov is the U.S. government's official web portal to all federal, state and local government web resources and services.